sensor_id;sensor_type;location;lat;lon;timestamp;P1;durP1;ratioP1;P2;durP2;ratioP2
10699;SDS011;5401;41.986;21.452;2023-03-26T00:00:05;10.70;;;6.23;;
10699;SDS011;5401;41.986;21.452;2023-03-26T00:02:39;11.70;;;6.30;;
10699;SDS011;5401;41.986;21.452;2023-03-26T00:05:08;11.07;;;6.13;;
10699;SDS011;5401;41.986;21.452;2023-03-26T00:07:39;7.27;;;5.57;;
10699;SDS011;5401;41.986;21.452;2023-03-26T00:10:07;8.77;;;5.50;;
10699;SDS011;5401;41.986;21.452;2023-03-26T00:12:36;9.10;;;5.17;;
10699;SDS011;5401;41.986;21.452;2023-03-26T00:15:05;6.40;;;5.57;;
10699;SDS011;5401;41.986;21.452;2023-03-26T00:17:36;7.60;;;5.80;;
10699;SDS011;5401;41.986;21.452;2023-03-26T00:20:04;10.03;;;5.90;;
10699;SDS011;5401;41.986;21.452;2023-03-26T00:22:33;12.13;;;5.37;;
10699;SDS011;5401;41.986;21.452;2023-03-26T00:25:01;7.20;;;5.43;;
10699;SDS011;5401;41.986;21.452;2023-03-26T00:27:29;6.37;;;4.27;;
10699;SDS011;5401;41.986;21.452;2023-03-26T00:29:57;5.63;;;4.40;;
10699;SDS011;5401;41.986;21.452;2023-03-26T00:32:27;7.43;;;4.83;;
10699;SDS011;5401;41.986;21.452;2023-03-26T00:34:55;9.67;;;5.00;;
10699;SDS011;5401;41.986;21.452;2023-03-26T00:37:23;7.57;;;4.50;;
10699;SDS011;5401;41.986;21.452;2023-03-26T00:39:52;5.87;;;4.87;;
10699;SDS011;5401;41.986;21.452;2023-03-26T00:42:24;7.33;;;4.97;;
10699;SDS011;5401;41.986;21.452;2023-03-26T00:44:52;7.53;;;4.63;;
10699;SDS011;5401;41.986;21.452;2023-03-26T00:47:22;6.73;;;4.80;;
10699;SDS011;5401;41.986;21.452;2023-03-26T00:49:51;5.77;;;4.67;;
10699;SDS011;5401;41.986;21.452;2023-03-26T00:52:19;7.77;;;4.93;;
10699;SDS011;5401;41.986;21.452;2023-03-26T00:54:49;6.13;;;4.70;;
10699;SDS011;5401;41.986;21.452;2023-03-26T00:57:18;4.93;;;4.43;;
10699;SDS011;5401;41.986;21.452;2023-03-26T00:59:46;5.13;;;4.07;;
10699;SDS011;5401;41.986;21.452;2023-03-26T01:02:15;5.40;;;4.77;;
10699;SDS011;5401;41.986;21.452;2023-03-26T01:04:46;5.63;;;4.70;;
10699;SDS011;5401;41.986;21.452;2023-03-26T01:07:23;4.70;;;4.23;;
10699;SDS011;5401;41.986;21.452;2023-03-26T01:09:55;7.00;;;4.30;;
10699;SDS011;5401;41.986;21.452;2023-03-26T01:12:25;4.27;;;3.77;;
10699;SDS011;5401;41.986;21.452;2023-03-26T01:14:57;4.70;;;4.07;;
10699;SDS011;5401;41.986;21.452;2023-03-26T01:17:27;4.50;;;4.10;;
10699;SDS011;5401;41.986;21.452;2023-03-26T01:20:00;4.90;;;4.40;;
10699;SDS011;5401;41.986;21.452;2023-03-26T01:22:40;4.10;;;3.70;;
10699;SDS011;5401;41.986;21.452;2023-03-26T01:25:13;4.37;;;3.97;;
10699;SDS011;5401;41.986;21.452;2023-03-26T01:27:42;5.97;;;4.23;;
10699;SDS011;5401;41.986;21.452;2023-03-26T01:30:15;4.93;;;3.80;;
10699;SDS011;5401;41.986;21.452;2023-03-26T01:32:53;8.00;;;3.53;;
10699;SDS011;5401;41.986;21.452;2023-03-26T01:35:28;5.60;;;4.07;;
10699;SDS011;5401;41.986;21.452;2023-03-26T01:38:05;9.10;;;4.10;;
10699;SDS011;5401;41.986;21.452;2023-03-26T01:40:45;5.67;;;4.30;;
10699;SDS011;5401;41.986;21.452;2023-03-26T01:43:20;5.70;;;4.13;;
10699;SDS011;5401;41.986;21.452;2023-03-26T01:45:55;4.23;;;3.83;;
10699;SDS011;5401;41.986;21.452;2023-03-26T01:48:30;5.57;;;3.90;;
10699;SDS011;5401;41.986;21.452;2023-03-26T01:51:01;4.10;;;3.70;;
10699;SDS011;5401;41.986;21.452;2023-03-26T01:53:30;4.37;;;3.97;;
10699;SDS011;5401;41.986;21.452;2023-03-26T01:56:02;4.80;;;4.10;;
10699;SDS011;5401;41.986;21.452;2023-03-26T01:58:38;6.10;;;5.40;;
10699;SDS011;5401;41.986;21.452;2023-03-26T02:01:17;6.73;;;5.47;;
10699;SDS011;5401;41.986;21.452;2023-03-26T02:03:53;7.90;;;5.67;;
10699;SDS011;5401;41.986;21.452;2023-03-26T02:06:29;12.70;;;5.83;;
10699;SDS011;5401;41.986;21.452;2023-03-26T02:09:02;7.70;;;6.23;;
10699;SDS011;5401;41.986;21.452;2023-03-26T02:11:35;7.10;;;5.03;;
10699;SDS011;5401;41.986;21.452;2023-03-26T02:14:06;5.83;;;5.13;;
10699;SDS011;5401;41.986;21.452;2023-03-26T02:16:34;7.43;;;4.73;;
10699;SDS011;5401;41.986;21.452;2023-03-26T02:19:02;5.60;;;4.10;;
10699;SDS011;5401;41.986;21.452;2023-03-26T02:21:30;6.60;;;5.50;;
10699;SDS011;5401;41.986;21.452;2023-03-26T02:23:58;5.93;;;5.23;;
10699;SDS011;5401;41.986;21.452;2023-03-26T02:26:28;7.07;;;5.20;;
10699;SDS011;5401;41.986;21.452;2023-03-26T02:28:58;5.77;;;4.30;;
10699;SDS011;5401;41.986;21.452;2023-03-26T02:31:26;4.73;;;4.23;;
10699;SDS011;5401;41.986;21.452;2023-03-26T02:33:54;3.47;;;3.07;;
10699;SDS011;5401;41.986;21.452;2023-03-26T02:36:22;3.43;;;3.00;;
10699;SDS011;5401;41.986;21.452;2023-03-26T02:38:52;4.40;;;3.40;;
10699;SDS011;5401;41.986;21.452;2023-03-26T02:41:20;4.97;;;2.60;;
10699;SDS011;5401;41.986;21.452;2023-03-26T02:43:47;2.67;;;2.33;;
10699;SDS011;5401;41.986;21.452;2023-03-26T02:46:16;9.00;;;2.57;;
10699;SDS011;5401;41.986;21.452;2023-03-26T02:48:44;6.03;;;2.13;;
10699;SDS011;5401;41.986;21.452;2023-03-26T02:51:12;8.23;;;2.30;;
10699;SDS011;5401;41.986;21.452;2023-03-26T02:53:42;3.00;;;1.77;;
10699;SDS011;5401;41.986;21.452;2023-03-26T02:56:10;4.83;;;2.10;;
10699;SDS011;5401;41.986;21.452;2023-03-26T02:58:38;2.50;;;1.80;;
10699;SDS011;5401;41.986;21.452;2023-03-26T03:01:05;2.90;;;1.67;;
10699;SDS011;5401;41.986;21.452;2023-03-26T03:03:34;2.87;;;1.80;;
10699;SDS011;5401;41.986;21.452;2023-03-26T03:06:02;3.93;;;1.60;;
10699;SDS011;5401;41.986;21.452;2023-03-26T03:08:30;2.30;;;1.60;;
10699;SDS011;5401;41.986;21.452;2023-03-26T03:10:59;2.70;;;1.70;;
10699;SDS011;5401;41.986;21.452;2023-03-26T03:13:28;2.13;;;1.67;;
10699;SDS011;5401;41.986;21.452;2023-03-26T03:15:55;3.10;;;1.60;;
10699;SDS011;5401;41.986;21.452;2023-03-26T03:18:23;3.03;;;1.70;;
10699;SDS011;5401;41.986;21.452;2023-03-26T03:20:52;1.60;;;1.50;;
10699;SDS011;5401;41.986;21.452;2023-03-26T03:23:19;1.50;;;1.37;;
10699;SDS011;5401;41.986;21.452;2023-03-26T03:25:47;4.63;;;1.50;;
10699;SDS011;5401;41.986;21.452;2023-03-26T03:28:16;4.23;;;1.33;;
10699;SDS011;5401;41.986;21.452;2023-03-26T03:30:44;1.17;;;1.10;;
10699;SDS011;5401;41.986;21.452;2023-03-26T03:33:13;5.23;;;1.77;;
10699;SDS011;5401;41.986;21.452;2023-03-26T03:35:41;2.47;;;1.20;;
10699;SDS011;5401;41.986;21.452;2023-03-26T03:38:12;1.87;;;1.50;;
10699;SDS011;5401;41.986;21.452;2023-03-26T03:40:39;1.70;;;1.60;;
10699;SDS011;5401;41.986;21.452;2023-03-26T03:43:07;1.80;;;1.40;;
10699;SDS011;5401;41.986;21.452;2023-03-26T03:45:34;2.17;;;1.67;;
10699;SDS011;5401;41.986;21.452;2023-03-26T03:48:02;2.83;;;1.50;;
10699;SDS011;5401;41.986;21.452;2023-03-26T03:50:29;1.93;;;1.50;;
10699;SDS011;5401;41.986;21.452;2023-03-26T03:52:57;3.80;;;1.30;;
10699;SDS011;5401;41.986;21.452;2023-03-26T03:55:27;3.53;;;1.53;;
10699;SDS011;5401;41.986;21.452;2023-03-26T03:57:54;7.43;;;1.30;;
10699;SDS011;5401;41.986;21.452;2023-03-26T04:00:23;3.33;;;1.50;;
10699;SDS011;5401;41.986;21.452;2023-03-26T04:02:50;1.77;;;1.60;;
10699;SDS011;5401;41.986;21.452;2023-03-26T04:05:19;1.57;;;1.30;;
10699;SDS011;5401;41.986;21.452;2023-03-26T04:07:47;4.57;;;1.50;;
10699;SDS011;5401;41.986;21.452;2023-03-26T04:10:15;2.10;;;1.57;;
10699;SDS011;5401;41.986;21.452;2023-03-26T04:12:44;5.33;;;1.47;;
10699;SDS011;5401;41.986;21.452;2023-03-26T04:15:11;1.30;;;1.20;;
10699;SDS011;5401;41.986;21.452;2023-03-26T04:17:39;3.17;;;1.70;;
10699;SDS011;5401;41.986;21.452;2023-03-26T04:20:09;2.87;;;1.40;;
10699;SDS011;5401;41.986;21.452;2023-03-26T04:22:39;1.70;;;1.23;;
10699;SDS011;5401;41.986;21.452;2023-03-26T04:25:08;2.53;;;1.40;;
10699;SDS011;5401;41.986;21.452;2023-03-26T04:27:36;1.73;;;1.40;;
10699;SDS011;5401;41.986;21.452;2023-03-26T04:30:09;4.50;;;1.73;;
10699;SDS011;5401;41.986;21.452;2023-03-26T04:32:41;2.03;;;1.60;;
10699;SDS011;5401;41.986;21.452;2023-03-26T04:35:10;3.20;;;1.60;;
10699;SDS011;5401;41.986;21.452;2023-03-26T04:37:39;1.60;;;1.50;;
10699;SDS011;5401;41.986;21.452;2023-03-26T04:40:10;4.37;;;1.57;;
10699;SDS011;5401;41.986;21.452;2023-03-26T04:42:40;2.40;;;1.60;;
10699;SDS011;5401;41.986;21.452;2023-03-26T04:45:13;1.53;;;1.30;;
10699;SDS011;5401;41.986;21.452;2023-03-26T04:47:41;6.97;;;1.40;;
10699;SDS011;5401;41.986;21.452;2023-03-26T04:50:10;1.47;;;1.37;;
10699;SDS011;5401;41.986;21.452;2023-03-26T04:52:38;1.80;;;1.50;;
10699;SDS011;5401;41.986;21.452;2023-03-26T04:55:06;2.33;;;1.50;;
10699;SDS011;5401;41.986;21.452;2023-03-26T04:57:43;9.17;;;3.10;;
10699;SDS011;5401;41.986;21.452;2023-03-26T05:00:17;3.70;;;1.90;;
10699;SDS011;5401;41.986;21.452;2023-03-26T05:02:45;9.50;;;2.93;;
10699;SDS011;5401;41.986;21.452;2023-03-26T05:05:14;6.97;;;3.93;;
10699;SDS011;5401;41.986;21.452;2023-03-26T05:07:42;4.57;;;1.93;;
10699;SDS011;5401;41.986;21.452;2023-03-26T05:10:10;8.13;;;2.27;;
10699;SDS011;5401;41.986;21.452;2023-03-26T05:12:39;6.60;;;2.57;;
10699;SDS011;5401;41.986;21.452;2023-03-26T05:15:07;8.90;;;1.97;;
10699;SDS011;5401;41.986;21.452;2023-03-26T05:17:38;7.63;;;2.00;;
10699;SDS011;5401;41.986;21.452;2023-03-26T05:20:09;7.43;;;2.73;;
10699;SDS011;5401;41.986;21.452;2023-03-26T05:22:47;4.07;;;2.43;;
10699;SDS011;5401;41.986;21.452;2023-03-26T05:25:15;12.90;;;3.80;;
10699;SDS011;5401;41.986;21.452;2023-03-26T05:27:43;4.57;;;2.77;;
10699;SDS011;5401;41.986;21.452;2023-03-26T05:30:12;9.57;;;2.30;;
10699;SDS011;5401;41.986;21.452;2023-03-26T05:32:42;4.33;;;2.47;;
10699;SDS011;5401;41.986;21.452;2023-03-26T05:35:13;14.20;;;5.03;;
10699;SDS011;5401;41.986;21.452;2023-03-26T05:37:41;5.60;;;2.30;;
10699;SDS011;5401;41.986;21.452;2023-03-26T05:40:10;6.07;;;2.20;;
10699;SDS011;5401;41.986;21.452;2023-03-26T05:42:39;15.00;;;5.90;;
10699;SDS011;5401;41.986;21.452;2023-03-26T05:45:08;6.83;;;2.90;;
10699;SDS011;5401;41.986;21.452;2023-03-26T05:47:37;4.20;;;1.87;;
10699;SDS011;5401;41.986;21.452;2023-03-26T05:50:06;4.23;;;2.47;;
10699;SDS011;5401;41.986;21.452;2023-03-26T05:52:35;10.50;;;2.93;;
10699;SDS011;5401;41.986;21.452;2023-03-26T05:55:03;7.47;;;2.20;;
10699;SDS011;5401;41.986;21.452;2023-03-26T05:57:31;4.97;;;2.53;;
10699;SDS011;5401;41.986;21.452;2023-03-26T06:00:01;5.13;;;1.97;;
10699;SDS011;5401;41.986;21.452;2023-03-26T06:02:29;7.00;;;2.33;;
10699;SDS011;5401;41.986;21.452;2023-03-26T06:04:57;5.97;;;2.30;;
10699;SDS011;5401;41.986;21.452;2023-03-26T06:07:26;10.87;;;4.70;;
10699;SDS011;5401;41.986;21.452;2023-03-26T06:09:53;7.73;;;2.53;;
10699;SDS011;5401;41.986;21.452;2023-03-26T06:12:21;6.70;;;2.90;;
10699;SDS011;5401;41.986;21.452;2023-03-26T06:14:49;8.67;;;4.50;;
10699;SDS011;5401;41.986;21.452;2023-03-26T06:17:17;4.90;;;2.53;;
10699;SDS011;5401;41.986;21.452;2023-03-26T06:19:44;2.63;;;2.03;;
10699;SDS011;5401;41.986;21.452;2023-03-26T06:22:12;22.47;;;11.53;;
10699;SDS011;5401;41.986;21.452;2023-03-26T06:24:41;7.57;;;4.30;;
10699;SDS011;5401;41.986;21.452;2023-03-26T06:27:09;7.53;;;3.10;;
10699;SDS011;5401;41.986;21.452;2023-03-26T06:29:36;14.27;;;4.70;;
10699;SDS011;5401;41.986;21.452;2023-03-26T06:32:04;3.80;;;2.63;;
10699;SDS011;5401;41.986;21.452;2023-03-26T06:34:32;3.33;;;1.70;;
10699;SDS011;5401;41.986;21.452;2023-03-26T06:37:00;3.47;;;2.20;;
10699;SDS011;5401;41.986;21.452;2023-03-26T06:39:28;21.57;;;7.87;;
10699;SDS011;5401;41.986;21.452;2023-03-26T06:41:57;5.03;;;2.80;;
10699;SDS011;5401;41.986;21.452;2023-03-26T06:44:24;6.50;;;2.90;;
10699;SDS011;5401;41.986;21.452;2023-03-26T06:46:52;6.40;;;2.70;;
10699;SDS011;5401;41.986;21.452;2023-03-26T06:49:20;1.63;;;1.30;;
10699;SDS011;5401;41.986;21.452;2023-03-26T06:51:47;4.30;;;1.70;;
10699;SDS011;5401;41.986;21.452;2023-03-26T06:54:15;5.30;;;2.37;;
10699;SDS011;5401;41.986;21.452;2023-03-26T06:56:42;2.83;;;2.00;;
10699;SDS011;5401;41.986;21.452;2023-03-26T06:59:12;4.13;;;2.10;;
10699;SDS011;5401;41.986;21.452;2023-03-26T07:01:39;4.30;;;1.40;;
10699;SDS011;5401;41.986;21.452;2023-03-26T07:04:07;6.17;;;2.80;;
10699;SDS011;5401;41.986;21.452;2023-03-26T07:06:34;3.40;;;2.07;;
10699;SDS011;5401;41.986;21.452;2023-03-26T07:09:02;5.27;;;2.20;;
10699;SDS011;5401;41.986;21.452;2023-03-26T07:11:30;6.23;;;3.80;;
10699;SDS011;5401;41.986;21.452;2023-03-26T07:13:57;3.63;;;2.10;;
10699;SDS011;5401;41.986;21.452;2023-03-26T07:16:27;11.33;;;7.53;;
10699;SDS011;5401;41.986;21.452;2023-03-26T07:18:54;12.60;;;5.20;;
10699;SDS011;5401;41.986;21.452;2023-03-26T07:21:24;4.87;;;2.27;;
10699;SDS011;5401;41.986;21.452;2023-03-26T07:23:52;2.30;;;1.90;;
10699;SDS011;5401;41.986;21.452;2023-03-26T07:26:24;7.07;;;3.33;;
10699;SDS011;5401;41.986;21.452;2023-03-26T07:28:55;4.70;;;2.00;;
10699;SDS011;5401;41.986;21.452;2023-03-26T07:31:30;6.33;;;3.20;;
10699;SDS011;5401;41.986;21.452;2023-03-26T07:34:08;14.07;;;4.77;;
10699;SDS011;5401;41.986;21.452;2023-03-26T07:36:45;8.27;;;3.37;;
10699;SDS011;5401;41.986;21.452;2023-03-26T07:39:21;11.67;;;5.20;;
10699;SDS011;5401;41.986;21.452;2023-03-26T07:42:02;4.67;;;2.77;;
10699;SDS011;5401;41.986;21.452;2023-03-26T07:44:43;23.17;;;7.50;;
10699;SDS011;5401;41.986;21.452;2023-03-26T07:47:20;12.37;;;4.73;;
10699;SDS011;5401;41.986;21.452;2023-03-26T07:49:53;19.37;;;7.13;;
10699;SDS011;5401;41.986;21.452;2023-03-26T07:52:22;5.77;;;2.87;;
10699;SDS011;5401;41.986;21.452;2023-03-26T07:54:50;8.27;;;3.90;;
10699;SDS011;5401;41.986;21.452;2023-03-26T07:57:21;6.87;;;3.77;;
10699;SDS011;5401;41.986;21.452;2023-03-26T07:59:58;4.60;;;3.30;;
10699;SDS011;5401;41.986;21.452;2023-03-26T08:02:51;4.20;;;2.47;;
10699;SDS011;5401;41.986;21.452;2023-03-26T08:05:47;10.43;;;3.77;;
10699;SDS011;5401;41.986;21.452;2023-03-26T08:08:26;4.77;;;2.10;;
10699;SDS011;5401;41.986;21.452;2023-03-26T08:11:05;4.73;;;2.30;;
10699;SDS011;5401;41.986;21.452;2023-03-26T08:13:40;4.87;;;2.10;;
10699;SDS011;5401;41.986;21.452;2023-03-26T08:16:22;2.57;;;1.60;;
10699;SDS011;5401;41.986;21.452;2023-03-26T08:18:58;2.03;;;1.50;;
10699;SDS011;5401;41.986;21.452;2023-03-26T08:21:33;2.50;;;1.83;;
10699;SDS011;5401;41.986;21.452;2023-03-26T08:24:07;3.93;;;2.90;;
10699;SDS011;5401;41.986;21.452;2023-03-26T08:26:40;2.77;;;2.10;;
10699;SDS011;5401;41.986;21.452;2023-03-26T08:29:17;4.63;;;1.90;;
10699;SDS011;5401;41.986;21.452;2023-03-26T08:31:52;2.43;;;2.23;;
10699;SDS011;5401;41.986;21.452;2023-03-26T08:34:23;2.87;;;1.80;;
10699;SDS011;5401;41.986;21.452;2023-03-26T08:36:51;1.83;;;1.43;;
10699;SDS011;5401;41.986;21.452;2023-03-26T08:39:18;2.07;;;1.73;;
10699;SDS011;5401;41.986;21.452;2023-03-26T08:54:54;4.93;;;2.60;;
10699;SDS011;5401;41.986;21.452;2023-03-26T09:00:43;5.30;;;3.30;;
10699;SDS011;5401;41.986;21.452;2023-03-26T09:03:27;2.33;;;1.90;;
10699;SDS011;5401;41.986;21.452;2023-03-26T09:06:15;3.93;;;1.80;;
10699;SDS011;5401;41.986;21.452;2023-03-26T09:09:08;3.30;;;2.60;;
10699;SDS011;5401;41.986;21.452;2023-03-26T09:18:27;1.60;;;1.50;;
10699;SDS011;5401;41.986;21.452;2023-03-26T09:21:25;2.43;;;1.63;;
10699;SDS011;5401;41.986;21.452;2023-03-26T09:24:19;6.50;;;1.53;;
10699;SDS011;5401;41.986;21.452;2023-03-26T09:27:15;4.63;;;1.90;;
10699;SDS011;5401;41.986;21.452;2023-03-26T09:36:09;4.60;;;1.83;;
10699;SDS011;5401;41.986;21.452;2023-03-26T09:38:58;1.90;;;1.40;;
10699;SDS011;5401;41.986;21.452;2023-03-26T09:41:35;1.30;;;1.20;;
10699;SDS011;5401;41.986;21.452;2023-03-26T09:44:15;2.80;;;1.30;;
10699;SDS011;5401;41.986;21.452;2023-03-26T09:47:18;5.43;;;1.90;;
10699;SDS011;5401;41.986;21.452;2023-03-26T09:49:57;4.00;;;1.83;;
10699;SDS011;5401;41.986;21.452;2023-03-26T09:52:43;2.60;;;1.43;;
10699;SDS011;5401;41.986;21.452;2023-03-26T09:55:26;2.57;;;1.80;;
10699;SDS011;5401;41.986;21.452;2023-03-26T10:01:23;2.80;;;1.90;;
10699;SDS011;5401;41.986;21.452;2023-03-26T10:04:05;3.97;;;1.80;;
10699;SDS011;5401;41.986;21.452;2023-03-26T10:07:03;3.03;;;1.50;;
10699;SDS011;5401;41.986;21.452;2023-03-26T10:09:43;4.73;;;3.10;;
10699;SDS011;5401;41.986;21.452;2023-03-26T10:12:21;2.10;;;1.60;;
10699;SDS011;5401;41.986;21.452;2023-03-26T10:14:59;2.40;;;1.70;;
10699;SDS011;5401;41.986;21.452;2023-03-26T10:17:42;1.20;;;1.10;;
10699;SDS011;5401;41.986;21.452;2023-03-26T10:20:27;2.53;;;1.30;;
10699;SDS011;5401;41.986;21.452;2023-03-26T10:23:07;3.37;;;1.40;;
10699;SDS011;5401;41.986;21.452;2023-03-26T10:25:56;3.03;;;2.30;;
10699;SDS011;5401;41.986;21.452;2023-03-26T10:28:35;6.07;;;3.53;;
10699;SDS011;5401;41.986;21.452;2023-03-26T10:31:26;4.53;;;2.40;;
10699;SDS011;5401;41.986;21.452;2023-03-26T10:34:08;2.73;;;2.33;;
10699;SDS011;5401;41.986;21.452;2023-03-26T10:37:00;2.67;;;1.40;;
10699;SDS011;5401;41.986;21.452;2023-03-26T10:39:42;4.87;;;1.67;;
10699;SDS011;5401;41.986;21.452;2023-03-26T10:42:39;2.17;;;1.30;;
10699;SDS011;5401;41.986;21.452;2023-03-26T10:45:17;1.87;;;1.43;;
10699;SDS011;5401;41.986;21.452;2023-03-26T10:54:12;2.43;;;1.30;;
10699;SDS011;5401;41.986;21.452;2023-03-26T10:56:46;1.30;;;1.20;;
10699;SDS011;5401;41.986;21.452;2023-03-26T10:59:16;5.33;;;1.67;;
10699;SDS011;5401;41.986;21.452;2023-03-26T11:01:45;2.03;;;1.43;;
10699;SDS011;5401;41.986;21.452;2023-03-26T11:04:23;2.70;;;1.50;;
10699;SDS011;5401;41.986;21.452;2023-03-26T11:07:03;2.27;;;1.50;;
10699;SDS011;5401;41.986;21.452;2023-03-26T11:09:40;2.27;;;1.40;;
10699;SDS011;5401;41.986;21.452;2023-03-26T11:12:15;1.43;;;1.33;;
10699;SDS011;5401;41.986;21.452;2023-03-26T11:14:50;3.17;;;1.43;;
10699;SDS011;5401;41.986;21.452;2023-03-26T11:17:28;1.20;;;1.10;;
10699;SDS011;5401;41.986;21.452;2023-03-26T11:20:09;2.40;;;1.37;;
10699;SDS011;5401;41.986;21.452;2023-03-26T11:22:51;1.47;;;1.10;;
10699;SDS011;5401;41.986;21.452;2023-03-26T11:25:36;6.43;;;1.50;;
10699;SDS011;5401;41.986;21.452;2023-03-26T11:28:20;2.30;;;1.60;;
10699;SDS011;5401;41.986;21.452;2023-03-26T11:30:56;1.40;;;1.30;;
10699;SDS011;5401;41.986;21.452;2023-03-26T11:33:28;1.03;;;1.00;;
10699;SDS011;5401;41.986;21.452;2023-03-26T11:36:04;1.13;;;1.03;;
10699;SDS011;5401;41.986;21.452;2023-03-26T11:38:35;1.60;;;1.10;;
10699;SDS011;5401;41.986;21.452;2023-03-26T11:41:11;3.27;;;1.70;;
10699;SDS011;5401;41.986;21.452;2023-03-26T11:43:42;3.03;;;1.20;;
10699;SDS011;5401;41.986;21.452;2023-03-26T11:46:14;1.70;;;1.30;;
10699;SDS011;5401;41.986;21.452;2023-03-26T11:48:47;1.77;;;1.40;;
10699;SDS011;5401;41.986;21.452;2023-03-26T11:51:19;1.90;;;1.30;;
10699;SDS011;5401;41.986;21.452;2023-03-26T11:53:52;1.93;;;1.33;;
10699;SDS011;5401;41.986;21.452;2023-03-26T11:56:24;1.40;;;1.30;;
10699;SDS011;5401;41.986;21.452;2023-03-26T11:58:56;1.83;;;1.43;;
10699;SDS011;5401;41.986;21.452;2023-03-26T12:01:28;1.40;;;1.30;;
10699;SDS011;5401;41.986;21.452;2023-03-26T12:04:09;1.77;;;1.33;;
10699;SDS011;5401;41.986;21.452;2023-03-26T12:06:39;2.23;;;1.47;;
10699;SDS011;5401;41.986;21.452;2023-03-26T12:09:17;5.13;;;1.43;;
10699;SDS011;5401;41.986;21.452;2023-03-26T12:11:47;2.17;;;1.27;;
10699;SDS011;5401;41.986;21.452;2023-03-26T12:14:20;3.03;;;1.50;;
10699;SDS011;5401;41.986;21.452;2023-03-26T12:16:58;1.10;;;1.00;;
10699;SDS011;5401;41.986;21.452;2023-03-26T12:19:26;1.77;;;1.20;;
10699;SDS011;5401;41.986;21.452;2023-03-26T12:22:02;2.13;;;1.20;;
10699;SDS011;5401;41.986;21.452;2023-03-26T12:24:31;1.73;;;1.33;;
10699;SDS011;5401;41.986;21.452;2023-03-26T12:27:05;2.27;;;1.27;;
10699;SDS011;5401;41.986;21.452;2023-03-26T12:29:49;1.20;;;1.10;;
10699;SDS011;5401;41.986;21.452;2023-03-26T12:32:19;4.43;;;1.50;;
10699;SDS011;5401;41.986;21.452;2023-03-26T12:34:48;1.90;;;1.20;;
10699;SDS011;5401;41.986;21.452;2023-03-26T12:37:33;2.77;;;1.50;;
10699;SDS011;5401;41.986;21.452;2023-03-26T12:40:07;4.13;;;1.30;;
10699;SDS011;5401;41.986;21.452;2023-03-26T12:42:54;2.30;;;2.00;;
10699;SDS011;5401;41.986;21.452;2023-03-26T12:45:27;1.60;;;1.50;;
10699;SDS011;5401;41.986;21.452;2023-03-26T12:47:56;1.20;;;1.20;;
10699;SDS011;5401;41.986;21.452;2023-03-26T12:50:27;3.23;;;1.60;;
10699;SDS011;5401;41.986;21.452;2023-03-26T12:53:06;5.50;;;1.33;;
10699;SDS011;5401;41.986;21.452;2023-03-26T12:55:46;0.90;;;0.90;;
10699;SDS011;5401;41.986;21.452;2023-03-26T12:58:33;1.27;;;1.03;;
10699;SDS011;5401;41.986;21.452;2023-03-26T13:01:18;1.10;;;1.00;;
10699;SDS011;5401;41.986;21.452;2023-03-26T13:04:00;1.17;;;1.07;;
10699;SDS011;5401;41.986;21.452;2023-03-26T13:06:39;3.73;;;1.30;;
10699;SDS011;5401;41.986;21.452;2023-03-26T13:09:16;2.60;;;1.20;;
10699;SDS011;5401;41.986;21.452;2023-03-26T13:12:12;1.20;;;0.93;;
10699;SDS011;5401;41.986;21.452;2023-03-26T13:18:01;1.80;;;1.20;;
10699;SDS011;5401;41.986;21.452;2023-03-26T13:20:45;3.50;;;1.50;;
10699;SDS011;5401;41.986;21.452;2023-03-26T13:23:20;2.13;;;1.10;;
10699;SDS011;5401;41.986;21.452;2023-03-26T13:26:02;2.87;;;1.20;;
10699;SDS011;5401;41.986;21.452;2023-03-26T13:28:40;1.53;;;1.30;;
10699;SDS011;5401;41.986;21.452;2023-03-26T13:31:19;5.03;;;1.53;;
10699;SDS011;5401;41.986;21.452;2023-03-26T13:33:56;1.37;;;1.20;;
10699;SDS011;5401;41.986;21.452;2023-03-26T13:36:30;1.60;;;1.20;;
10699;SDS011;5401;41.986;21.452;2023-03-26T13:39:11;0.87;;;0.87;;
10699;SDS011;5401;41.986;21.452;2023-03-26T13:41:50;1.00;;;1.00;;
10699;SDS011;5401;41.986;21.452;2023-03-26T13:44:28;1.40;;;1.30;;
10699;SDS011;5401;41.986;21.452;2023-03-26T13:47:06;2.67;;;1.20;;
10699;SDS011;5401;41.986;21.452;2023-03-26T13:49:39;1.03;;;0.93;;
10699;SDS011;5401;41.986;21.452;2023-03-26T13:52:10;1.07;;;1.00;;
10699;SDS011;5401;41.986;21.452;2023-03-26T13:54:42;2.53;;;1.40;;
10699;SDS011;5401;41.986;21.452;2023-03-26T13:57:16;2.30;;;1.50;;
10699;SDS011;5401;41.986;21.452;2023-03-26T13:59:49;4.63;;;1.70;;
10699;SDS011;5401;41.986;21.452;2023-03-26T14:02:26;6.20;;;5.47;;
10699;SDS011;5401;41.986;21.452;2023-03-26T14:05:00;5.00;;;3.30;;
10699;SDS011;5401;41.986;21.452;2023-03-26T14:07:33;2.80;;;1.67;;
10699;SDS011;5401;41.986;21.452;2023-03-26T14:10:07;1.80;;;1.70;;
10699;SDS011;5401;41.986;21.452;2023-03-26T14:12:42;2.40;;;1.80;;
10699;SDS011;5401;41.986;21.452;2023-03-26T14:15:16;1.80;;;1.50;;
10699;SDS011;5401;41.986;21.452;2023-03-26T14:17:50;4.87;;;1.70;;
10699;SDS011;5401;41.986;21.452;2023-03-26T14:23:22;1.73;;;1.63;;
10699;SDS011;5401;41.986;21.452;2023-03-26T14:26:05;3.37;;;1.60;;
10699;SDS011;5401;41.986;21.452;2023-03-26T14:28:50;1.97;;;1.53;;
10699;SDS011;5401;41.986;21.452;2023-03-26T14:31:32;2.17;;;1.10;;
10699;SDS011;5401;41.986;21.452;2023-03-26T14:37:07;1.47;;;1.37;;
10699;SDS011;5401;41.986;21.452;2023-03-26T14:40:07;1.77;;;1.23;;
10699;SDS011;5401;41.986;21.452;2023-03-26T14:42:54;1.97;;;1.60;;
10699;SDS011;5401;41.986;21.452;2023-03-26T14:45:43;1.40;;;1.30;;
10699;SDS011;5401;41.986;21.452;2023-03-26T14:48:44;1.50;;;1.37;;
10699;SDS011;5401;41.986;21.452;2023-03-26T14:51:30;1.40;;;1.30;;
10699;SDS011;5401;41.986;21.452;2023-03-26T14:54:07;2.13;;;1.67;;
10699;SDS011;5401;41.986;21.452;2023-03-26T14:56:49;1.43;;;1.20;;
10699;SDS011;5401;41.986;21.452;2023-03-26T15:05:44;8.27;;;1.97;;
10699;SDS011;5401;41.986;21.452;2023-03-26T15:11:56;3.83;;;1.33;;
10699;SDS011;5401;41.986;21.452;2023-03-26T15:14:43;3.83;;;1.70;;
10699;SDS011;5401;41.986;21.452;2023-03-26T15:21:06;2.17;;;1.70;;
10699;SDS011;5401;41.986;21.452;2023-03-26T15:24:07;2.20;;;1.70;;
10699;SDS011;5401;41.986;21.452;2023-03-26T15:27:08;3.07;;;1.57;;
10699;SDS011;5401;41.986;21.452;2023-03-26T15:36:16;7.17;;;1.70;;
10699;SDS011;5401;41.986;21.452;2023-03-26T15:39:19;4.17;;;1.40;;
10699;SDS011;5401;41.986;21.452;2023-03-26T15:42:14;1.87;;;1.50;;
10699;SDS011;5401;41.986;21.452;2023-03-26T15:44:50;2.40;;;1.60;;
10699;SDS011;5401;41.986;21.452;2023-03-26T15:47:33;2.33;;;1.67;;
10699;SDS011;5401;41.986;21.452;2023-03-26T15:50:18;3.60;;;1.50;;
10699;SDS011;5401;41.986;21.452;2023-03-26T15:53:00;2.10;;;1.90;;
10699;SDS011;5401;41.986;21.452;2023-03-26T15:55:39;1.73;;;1.30;;
10699;SDS011;5401;41.986;21.452;2023-03-26T15:58:13;2.70;;;1.70;;
10699;SDS011;5401;41.986;21.452;2023-03-26T16:00:50;1.87;;;1.70;;
10699;SDS011;5401;41.986;21.452;2023-03-26T16:03:26;3.13;;;1.97;;
10699;SDS011;5401;41.986;21.452;2023-03-26T16:09:01;2.47;;;2.27;;
10699;SDS011;5401;41.986;21.452;2023-03-26T16:14:40;2.07;;;1.87;;
10699;SDS011;5401;41.986;21.452;2023-03-26T16:17:11;3.67;;;1.90;;
10699;SDS011;5401;41.986;21.452;2023-03-26T16:19:47;2.13;;;1.90;;
10699;SDS011;5401;41.986;21.452;2023-03-26T16:22:37;2.07;;;1.60;;
10699;SDS011;5401;41.986;21.452;2023-03-26T16:25:20;2.33;;;2.00;;
10699;SDS011;5401;41.986;21.452;2023-03-26T16:28:15;6.63;;;1.80;;
10699;SDS011;5401;41.986;21.452;2023-03-26T16:31:17;2.27;;;1.70;;
10699;SDS011;5401;41.986;21.452;2023-03-26T16:33:49;2.17;;;1.97;;
10699;SDS011;5401;41.986;21.452;2023-03-26T16:36:30;4.80;;;2.00;;
10699;SDS011;5401;41.986;21.452;2023-03-26T16:39:20;3.17;;;2.00;;
10699;SDS011;5401;41.986;21.452;2023-03-26T16:42:02;3.93;;;1.63;;
10699;SDS011;5401;41.986;21.452;2023-03-26T16:44:48;4.10;;;1.80;;